Time;durP1;ratioP1;P1;durP2;ratioP2;P2;SDS_P1;SDS_P2;PMS_P1;PMS_P2;Temp;Humidity;BMP_temperature;BMP_pressure;BME280_temperature;BME280_humidity;BME280_pressure;Samples;Min_cycle;Max_cycle;Signal;HPM_P1;HPM_P2
2023/04/14 00:00:11;;;;;;;;;1.50;1.50;;;;;11.86;54.65;100563.97;5115069;27;45427;-64
2023/04/14 00:02:36;;;;;;;;;2.00;2.00;;;;;11.87;54.66;100557.66;5106601;27;46138;-64
2023/04/14 00:05:03;;;;;;;;;2.75;2.75;;;;;11.93;54.74;100561.94;5118072;27;45448;-64
2023/04/14 00:07:28;;;;;;;;;4.00;2.00;;;;;11.93;54.46;100572.66;5116393;27;45488;-64
2023/04/14 00:09:53;;;;;;;;;2.00;2.00;;;;;11.96;54.54;100566.28;5116459;27;45646;-64
2023/04/14 00:12:19;;;;;;;;;3.00;2.00;;;;;11.94;54.83;100563.69;5114792;27;49439;-64
2023/04/14 00:14:44;;;;;;;;;4.25;2.25;;;;;11.95;54.64;100567.25;5106687;27;45369;-64
2023/04/14 00:17:10;;;;;;;;;3.50;2.50;;;;;11.96;54.47;100556.47;5100557;27;45414;-64
2023/04/14 00:19:35;;;;;;;;;3.00;3.00;;;;;11.95;54.71;100556.53;5096358;27;47569;-64
2023/04/14 00:22:01;;;;;;;;;3.25;3.25;;;;;11.94;54.69;100550.31;5111776;27;45656;-64
2023/04/14 00:24:26;;;;;;;;;4.75;3.25;;;;;11.92;54.64;100554.00;5116115;27;45341;-64
2023/04/14 00:26:51;;;;;;;;;3.25;2.00;;;;;11.89;55.08;100544.25;5102992;27;46376;-64
2023/04/14 00:29:17;;;;;;;;;3.75;3.75;;;;;11.90;55.08;100546.00;5116138;27;45471;-64
2023/04/14 00:31:42;;;;;;;;;4.00;3.00;;;;;11.87;54.76;100540.75;5101335;27;58156;-64
2023/04/14 00:34:07;;;;;;;;;3.00;3.00;;;;;11.83;55.14;100545.38;5102439;27;45407;-64
2023/04/14 00:36:33;;;;;;;;;5.00;5.00;;;;;11.79;54.85;100541.06;5110423;27;48819;-64
2023/04/14 00:38:59;;;;;;;;;4.25;3.25;;;;;11.74;54.97;100542.19;5119475;27;45457;-64
2023/04/14 00:41:25;;;;;;;;;3.75;3.75;;;;;11.60;55.41;100524.91;5101306;27;46117;-64
2023/04/14 00:43:53;;;;;;;;;4.00;4.00;;;;;11.68;55.24;100536.16;5103971;27;45605;-64
2023/04/14 00:46:19;;;;;;;;;6.25;5.00;;;;;11.59;55.37;100532.97;5102717;27;45331;-64
2023/04/14 00:48:45;;;;;;;;;5.50;4.75;;;;;11.56;55.93;100530.44;5100434;27;45276;-64
2023/04/14 00:51:11;;;;;;;;;5.25;4.00;;;;;11.57;55.59;100526.84;5110942;27;45901;-64
2023/04/14 00:53:37;;;;;;;;;4.25;4.00;;;;;11.58;55.77;100536.59;5116655;27;47384;-64
2023/04/14 00:56:02;;;;;;;;;3.75;3.00;;;;;11.57;55.83;100532.19;5100552;27;45348;-64
2023/04/14 00:58:29;;;;;;;;;4.50;4.00;;;;;11.56;55.75;100525.97;5101037;27;45310;-64
2023/04/14 01:00:54;;;;;;;;;4.25;4.00;;;;;11.40;55.88;100504.31;5100455;27;46978;-64
2023/04/14 01:03:21;;;;;;;;;4.50;3.50;;;;;11.48;55.94;100528.06;5103825;27;45455;-64
2023/04/14 01:05:46;;;;;;;;;4.75;4.50;;;;;11.46;56.11;100525.47;5102972;27;45389;-64
2023/04/14 01:08:12;;;;;;;;;5.75;5.00;;;;;11.43;56.34;100525.59;5118512;27;45513;-64
2023/04/14 01:10:47;;;;;;;;;8.50;6.00;;;;;11.35;56.67;100522.34;5100196;27;45419;-64
2023/04/14 01:13:34;;;;;;;;;7.50;6.00;;;;;11.17;56.51;100501.69;5099782;27;45726;-64
2023/04/14 01:16:05;;;;;;;;;5.75;4.25;;;;;11.28;56.87;100518.16;5103244;27;45350;-64
2023/04/14 01:18:52;;;;;;;;;7.50;5.50;;;;;11.34;56.38;100519.72;5102124;27;45381;-64
2023/04/14 01:21:27;;;;;;;;;5.75;4.75;;;;;11.36;56.88;100524.09;5113074;27;46620;-64
2023/04/14 01:24:17;;;;;;;;;4.00;4.00;;;;;11.32;56.66;100528.66;5115431;27;45789;-64
2023/04/14 01:26:44;;;;;;;;;6.00;4.75;;;;;11.17;56.81;100518.56;5102487;27;45272;-64
2023/04/14 01:29:51;;;;;;;;;5.00;4.00;;;;;11.17;56.96;100525.72;5113869;27;45551;-64
2023/04/14 01:32:21;;;;;;;;;6.50;5.75;;;;;11.00;57.51;100511.19;4996548;28;45770;-64
2023/04/14 01:34:56;;;;;;;;;7.00;6.25;;;;;11.04;57.30;100527.97;5089962;27;45301;-64
2023/04/14 01:37:35;;;;;;;;;7.50;6.25;;;;;11.01;57.94;100520.97;5104155;27;45569;-64
2023/04/14 01:40:14;;;;;;;;;6.50;5.50;;;;;11.06;57.63;100532.34;5099758;27;45410;-64
2023/04/14 01:42:46;;;;;;;;;5.25;5.25;;;;;11.00;57.53;100503.19;5112530;27;46487;-64
2023/04/14 01:45:25;;;;;;;;;6.00;5.00;;;;;11.08;57.43;100527.81;5099751;27;45636;-64
2023/04/14 01:47:52;;;;;;;;;7.00;4.75;;;;;11.09;57.65;100531.34;5101997;27;45481;-64
2023/04/14 01:50:19;;;;;;;;;4.00;4.00;;;;;11.10;57.58;100525.09;5111296;27;45623;-64
2023/04/14 01:52:46;;;;;;;;;7.75;5.00;;;;;11.11;57.82;100519.69;5108524;27;46328;-64
2023/04/14 01:55:16;;;;;;;;;7.75;7.75;;;;;11.15;57.55;100519.56;5113034;27;45389;-64
2023/04/14 01:57:44;;;;;;;;;5.00;5.00;;;;;11.15;57.83;100524.91;5103255;27;45302;-64
2023/04/14 02:00:11;;;;;;;;;5.00;4.25;;;;;11.15;57.80;100522.25;5105718;27;45332;-64
2023/04/14 02:02:38;;;;;;;;;6.25;6.25;;;;;11.10;57.72;100515.25;5108597;27;45503;-64
2023/04/14 02:05:07;;;;;;;;;6.50;6.50;;;;;11.06;57.90;100518.09;5097631;27;45388;-64
2023/04/14 02:07:34;;;;;;;;;6.25;6.25;;;;;11.00;57.89;100516.53;5102448;27;45450;-64
2023/04/14 02:10:00;;;;;;;;;5.25;5.00;;;;;10.81;58.13;100499.47;5099262;27;45291;-64
2023/04/14 02:12:28;;;;;;;;;5.50;4.75;;;;;10.85;58.11;100520.66;5106166;27;46378;-64
2023/04/14 02:14:54;;;;;;;;;4.50;4.00;;;;;10.85;57.81;100523.31;5103336;27;45376;-64
2023/04/14 02:17:20;;;;;;;;;8.75;4.25;;;;;10.84;58.23;100523.38;5119740;27;45330;-64
2023/04/14 02:19:46;;;;;;;;;4.25;4.25;;;;;10.87;58.50;100528.63;5103842;27;45327;-64
2023/04/14 02:22:12;;;;;;;;;3.75;3.75;;;;;10.84;57.89;100521.59;5118711;27;46191;-64
2023/04/14 02:24:38;;;;;;;;;0.25;0.00;;;;;10.86;58.25;100527.75;5104708;27;45348;-64
2023/04/14 02:27:15;;;;;;;;;4.75;3.25;;;;;10.85;58.41;100530.47;5099057;27;45337;-64
2023/04/14 02:29:47;;;;;;;;;5.75;3.00;;;;;10.83;58.52;100524.34;5101753;27;48165;-64
2023/04/14 02:32:22;;;;;;;;;3.00;3.00;;;;;10.88;57.92;100527.69;5099008;27;47355;-64
2023/04/14 02:34:54;;;;;;;;;5.00;4.00;;;;;10.85;57.87;100520.66;5098984;27;45495;-64
2023/04/14 02:37:24;;;;;;;;;3.25;3.25;;;;;10.84;58.38;100521.59;5114679;27;45406;-64
2023/04/14 02:39:57;;;;;;;;;3.50;2.00;;;;;10.82;58.70;100514.56;5113472;27;45523;-64
2023/04/14 02:42:27;;;;;;;;;4.00;3.25;;;;;10.68;58.55;100504.41;5104620;27;45317;-64
2023/04/14 02:44:59;;;;;;;;;4.00;4.00;;;;;10.72;58.68;100506.88;5102666;27;45699;-64
2023/04/14 02:47:30;;;;;;;;;5.00;4.00;;;;;10.68;58.23;100515.94;5102583;27;45383;-64
2023/04/14 02:49:58;;;;;;;;;4.00;4.00;;;;;10.63;58.97;100509.91;5102423;27;45770;-64
2023/04/14 02:52:28;;;;;;;;;4.25;3.75;;;;;10.60;58.76;100507.34;5107488;27;45284;-64
2023/04/14 02:54:55;;;;;;;;;4.00;4.00;;;;;10.53;58.53;100498.69;5111270;27;45334;-64
2023/04/14 02:57:21;;;;;;;;;4.00;4.00;;;;;10.49;59.05;100490.84;5105017;27;45334;-64
2023/04/14 02:59:47;;;;;;;;;5.00;5.00;;;;;10.54;58.75;100492.44;5112399;27;45362;-64
2023/04/14 03:02:14;;;;;;;;;6.25;4.75;;;;;10.53;59.03;100492.47;5111877;27;45477;-64
2023/04/14 03:04:42;;;;;;;;;3.50;3.50;;;;;10.54;59.09;100484.44;5117163;27;45325;-64
2023/04/14 03:07:10;;;;;;;;;4.25;4.25;;;;;10.51;59.40;100487.19;5103050;27;45377;-64
2023/04/14 03:09:36;;;;;;;;;3.00;3.00;;;;;10.49;59.27;100477.50;5101834;27;45448;-64
2023/04/14 03:12:03;;;;;;;;;5.00;4.50;;;;;10.48;58.90;100473.97;5092049;27;47182;-64
2023/04/14 03:14:30;;;;;;;;;3.00;3.00;;;;;10.53;59.11;100481.81;5122566;27;45324;-64
2023/04/14 03:16:56;;;;;;;;;4.00;4.00;;;;;10.46;59.51;100467.81;5103984;27;45448;-64
2023/04/14 03:19:22;;;;;;;;;3.25;3.25;;;;;10.50;59.50;100465.91;5110132;27;45539;-64
2023/04/14 03:21:53;;;;;;;;;4.00;4.00;;;;;10.49;59.71;100475.72;5118553;27;45484;-64
2023/04/14 03:24:23;;;;;;;;;3.00;3.00;;;;;10.44;59.05;100459.00;5122492;27;45348;-64
2023/04/14 03:26:54;;;;;;;;;4.00;4.00;;;;;10.44;59.26;100461.66;5117527;27;45483;-64
2023/04/14 03:29:21;;;;;;;;;3.00;3.00;;;;;10.37;59.60;100461.03;5117284;27;45609;-64
2023/04/14 03:31:48;;;;;;;;;2.50;2.50;;;;;10.29;59.50;100470.16;5102239;27;45501;-64
2023/04/14 03:34:15;;;;;;;;;3.00;3.00;;;;;10.30;59.66;100469.25;5101731;27;45664;-64
2023/04/14 03:36:42;;;;;;;;;4.00;3.25;;;;;10.30;59.84;100466.59;5112465;27;45360;-63
2023/04/14 03:39:10;;;;;;;;;2.00;2.00;;;;;10.25;59.50;100465.88;5108714;27;45394;-64
2023/04/14 03:41:38;;;;;;;;;4.75;3.50;;;;;10.27;60.21;100466.69;5089362;27;46424;-64
2023/04/14 03:44:06;;;;;;;;;2.25;2.25;;;;;10.23;59.71;100465.94;5115224;27;45729;-64
2023/04/14 03:46:31;;;;;;;;;4.75;3.00;;;;;10.21;60.04;100473.13;5109608;27;45495;-64
2023/04/14 03:48:58;;;;;;;;;3.00;3.00;;;;;10.23;59.92;100481.94;5106802;27;45240;-64
2023/04/14 03:51:27;;;;;;;;;3.00;2.00;;;;;10.22;59.90;100484.66;5101102;27;45367;-64
2023/04/14 03:53:56;;;;;;;;;2.00;2.00;;;;;10.18;60.06;100473.22;5100676;27;45470;-64
2023/04/14 03:56:22;;;;;;;;;4.25;2.00;;;;;10.17;60.55;100467.03;5107200;27;45236;-64
2023/04/14 03:58:51;;;;;;;;;3.00;3.00;;;;;10.13;60.26;100468.06;5115655;27;45552;-64
2023/04/14 04:01:18;;;;;;;;;3.50;3.00;;;;;10.08;60.26;100472.69;5101004;27;46122;-64
2023/04/14 04:03:44;;;;;;;;;3.75;3.25;;;;;10.09;60.75;100468.19;5116353;27;45625;-64
2023/04/14 04:06:10;;;;;;;;;6.00;3.00;;;;;10.05;60.45;100466.56;5108338;27;45497;-64
2023/04/14 04:08:39;;;;;;;;;3.00;3.00;;;;;9.96;60.38;100457.97;5114996;27;45378;-64
2023/04/14 04:11:06;;;;;;;;;3.00;3.00;;;;;9.98;60.98;100469.44;5112102;27;45475;-64
2023/04/14 04:13:34;;;;;;;;;3.00;3.00;;;;;9.98;60.79;100460.59;5100047;27;45671;-64
2023/04/14 04:16:00;;;;;;;;;3.00;2.75;;;;;9.93;60.91;100459.88;5105575;27;45402;-64
2023/04/14 04:18:27;;;;;;;;;1.00;1.00;;;;;9.90;61.07;100459.97;5091985;27;45492;-64
2023/04/14 04:20:56;;;;;;;;;3.75;3.50;;;;;9.87;61.39;100458.28;5113469;27;46125;-64
2023/04/14 04:23:23;;;;;;;;;6.75;4.00;;;;;9.84;60.85;100450.41;5108287;27;45661;-64
2023/04/14 04:25:50;;;;;;;;;3.00;3.00;;;;;9.85;61.05;100459.25;5082676;27;45404;-64
2023/04/14 04:28:15;;;;;;;;;5.00;3.50;;;;;9.81;61.10;100454.03;5108272;27;45529;-64
2023/04/14 04:30:44;;;;;;;;;3.50;3.50;;;;;9.75;61.07;100443.56;5107040;27;46219;-64
2023/04/14 04:33:10;;;;;;;;;4.00;4.00;;;;;9.76;61.64;100449.78;5120329;27;45608;-64
2023/04/14 04:35:37;;;;;;;;;3.50;3.50;;;;;9.75;61.62;100446.22;5111613;27;45539;-64
2023/04/14 04:38:04;;;;;;;;;5.25;4.00;;;;;9.76;61.76;100444.47;5117897;27;45772;-64
2023/04/14 04:40:35;;;;;;;;;4.75;4.75;;;;;9.75;61.59;100437.38;5111858;27;46993;-64
2023/04/14 04:43:00;;;;;;;;;3.00;3.00;;;;;9.73;61.72;100437.41;5100141;27;45357;-64
2023/04/14 04:46:11;;;;;;;;;8.00;4.00;;;;;9.68;61.54;100433.19;5109152;27;60219;-64
2023/04/14 04:48:37;;;;;;;;;4.00;3.00;;;;;9.61;61.56;100435.19;5112747;27;45251;-64
2023/04/14 04:51:02;;;;;;;;;5.25;5.25;;;;;9.61;61.97;100428.03;5118715;27;57505;-64
2023/04/14 04:53:27;;;;;;;;;3.75;3.75;;;;;9.61;62.12;100425.38;5113132;27;45244;-64
2023/04/14 04:55:52;;;;;;;;;4.00;3.75;;;;;9.57;62.34;100421.09;5120656;27;50645;-64
2023/04/14 04:58:18;;;;;;;;;4.00;4.00;;;;;9.58;62.43;100425.47;5111039;27;50191;-64
2023/04/14 05:00:43;;;;;;;;;4.25;2.75;;;;;9.60;61.98;100422.75;5109741;27;45341;-64
2023/04/14 05:03:08;;;;;;;;;5.00;4.00;;;;;9.61;62.07;100419.19;5104892;27;52452;-64
2023/04/14 05:05:35;;;;;;;;;4.50;4.50;;;;;9.58;62.47;100417.47;5110787;27;45393;-64
2023/04/14 05:08:01;;;;;;;;;5.00;3.00;;;;;9.64;61.98;100413.75;5120404;27;45398;-64
2023/04/14 05:10:26;;;;;;;;;5.25;5.25;;;;;9.64;62.56;100419.09;5105231;27;45427;-64
2023/04/14 05:12:51;;;;;;;;;4.00;3.50;;;;;9.56;62.21;100410.47;5099410;27;54250;-64
2023/04/14 05:15:17;;;;;;;;;6.25;4.50;;;;;9.58;62.76;100414.81;5099207;27;46630;-64
2023/04/14 05:17:42;;;;;;;;;3.00;3.00;;;;;9.49;62.20;100404.47;5099767;27;45362;-64
2023/04/14 05:20:08;;;;;;;;;5.25;5.00;;;;;9.42;61.98;100397.59;5101234;27;46355;-64
2023/04/14 05:22:33;;;;;;;;;6.75;4.00;;;;;9.45;62.45;100410.81;5099268;27;45430;-64
2023/04/14 05:24:59;;;;;;;;;5.25;5.25;;;;;9.42;62.98;100403.81;5108365;27;45605;-64
2023/04/14 05:27:24;;;;;;;;;8.75;7.00;;;;;9.39;62.77;100392.41;5108171;27;45476;-64
2023/04/14 05:29:51;;;;;;;;;2.75;2.75;;;;;9.37;63.06;100394.22;5099780;27;45893;-64
2023/04/14 05:32:16;;;;;;;;;9.00;9.00;;;;;8.97;63.28;100324.50;5113738;27;45337;-64
2023/04/14 05:34:41;;;;;;;;;4.25;4.25;;;;;9.31;63.01;100397.97;5106111;27;45430;-64
2023/04/14 05:37:07;;;;;;;;;6.00;6.00;;;;;9.32;62.67;100404.16;5102415;27;45618;-64
2023/04/14 05:39:32;;;;;;;;;8.75;7.75;;;;;9.29;63.01;100397.16;5107024;27;49881;-64
2023/04/14 05:41:58;;;;;;;;;6.50;6.50;;;;;9.30;63.14;100400.69;5100838;27;51053;-64
2023/04/14 05:44:24;;;;;;;;;8.25;6.00;;;;;9.29;62.91;100402.47;5098489;27;45325;-68
2023/04/14 05:46:49;;;;;;;;;8.50;5.25;;;;;9.23;63.40;100394.69;5109585;27;45326;-69
2023/04/14 05:49:14;;;;;;;;;4.50;4.00;;;;;9.20;63.40;100392.97;5102932;27;45397;-68
2023/04/14 05:51:40;;;;;;;;;7.00;6.50;;;;;9.16;63.40;100394.00;5112508;27;53645;-69
2023/04/14 05:54:05;;;;;;;;;8.25;6.25;;;;;9.17;63.40;100394.88;5108552;27;45560;-69
2023/04/14 05:56:30;;;;;;;;;8.00;7.25;;;;;9.14;63.89;100395.84;5102105;27;45374;-69
2023/04/14 05:58:56;;;;;;;;;9.00;7.50;;;;;9.13;64.01;100387.91;5114652;27;45288;-68
2023/04/14 06:01:21;;;;;;;;;8.75;7.50;;;;;9.10;63.71;100378.22;5103512;27;45390;-69
2023/04/14 06:03:46;;;;;;;;;9.00;8.25;;;;;9.05;63.87;100378.38;5119686;27;45346;-69
2023/04/14 06:06:11;;;;;;;;;8.50;7.25;;;;;9.12;64.01;100383.50;5113844;27;58378;-69
2023/04/14 06:08:37;;;;;;;;;8.25;8.25;;;;;9.12;64.00;100389.72;5108145;27;53581;-69
2023/04/14 06:11:02;;;;;;;;;5.75;5.75;;;;;9.10;63.74;100383.53;5111511;27;45536;-69
2023/04/14 06:13:28;;;;;;;;;6.75;6.75;;;;;9.10;64.40;100380.88;5117641;27;45551;-69
2023/04/14 06:15:54;;;;;;;;;9.50;8.25;;;;;9.05;64.09;100358.84;5112569;27;45442;-71
2023/04/14 06:18:21;;;;;;;;;7.75;7.75;;;;;9.18;64.06;100384.16;5108945;27;46274;-65
2023/04/14 06:20:47;;;;;;;;;11.00;9.75;;;;;9.10;64.38;100356.91;5111929;27;45459;-65
2023/04/14 06:23:13;;;;;;;;;9.50;8.75;;;;;9.16;64.27;100362.03;5107709;27;45324;-65
2023/04/14 06:25:39;;;;;;;;;12.25;8.25;;;;;9.22;64.48;100368.94;5120068;27;45300;-65
2023/04/14 06:28:04;;;;;;;;;11.50;9.75;;;;;9.25;64.36;100377.75;5107722;27;46216;-65
2023/04/14 06:30:33;;;;;;;;;12.75;10.00;;;;;9.22;64.55;100375.16;5114254;27;45386;-65
2023/04/14 06:33:02;;;;;;;;;13.50;12.25;;;;;9.23;64.58;100376.03;5106604;27;45386;-65
2023/04/14 06:35:28;;;;;;;;;12.50;9.75;;;;;9.21;64.73;100368.09;5112102;27;45397;-65
2023/04/14 06:37:54;;;;;;;;;10.00;9.00;;;;;9.14;64.77;100366.56;5117515;27;46095;-65
2023/04/14 06:40:19;;;;;;;;;9.75;9.00;;;;;9.16;64.54;100369.19;5101885;27;45402;-65
2023/04/14 06:42:45;;;;;;;;;14.00;11.50;;;;;9.17;64.65;100363.81;5106503;27;45483;-65
2023/04/14 06:45:10;;;;;;;;;9.00;9.00;;;;;9.16;64.79;100356.72;5108060;27;57996;-65
2023/04/14 06:47:36;;;;;;;;;14.00;12.75;;;;;9.17;64.96;100349.59;5126895;27;47668;-65
2023/04/14 06:50:01;;;;;;;;;13.50;11.50;;;;;9.09;65.24;100339.22;5125479;27;45507;-65
2023/04/14 06:52:27;;;;;;;;;13.75;12.00;;;;;9.07;65.26;100331.28;5109080;27;45334;-65
2023/04/14 06:54:52;;;;;;;;;16.25;13.75;;;;;9.06;65.07;100331.31;5111213;27;45388;-65
2023/04/14 06:57:17;;;;;;;;;14.25;12.25;;;;;9.12;64.93;100336.47;5114558;27;55574;-65
2023/04/14 06:59:43;;;;;;;;;13.25;13.25;;;;;9.13;65.64;100324.88;5101937;27;45541;-65
2023/04/14 07:02:08;;;;;;;;;7.00;7.00;;;;;9.15;65.23;100330.13;5113123;27;45760;-65
2023/04/14 07:04:35;;;;;;;;;15.00;13.00;;;;;9.19;65.72;100339.78;5109416;27;45543;-65
2023/04/14 07:07:01;;;;;;;;;10.50;10.50;;;;;9.19;65.26;100335.31;5112472;27;46038;-65
2023/04/14 07:09:27;;;;;;;;;9.00;8.75;;;;;9.22;65.69;100334.34;5119668;27;45413;-65
2023/04/14 07:11:53;;;;;;;;;6.00;3.00;;;;;9.31;65.63;100336.69;5088442;27;45388;-65
2023/04/14 07:14:19;;;;;;;;;12.25;10.50;;;;;9.31;65.90;100328.72;5102125;27;45425;-65
2023/04/14 07:16:44;;;;;;;;;13.75;12.75;;;;;9.40;66.01;100338.19;5106188;27;46766;-65
2023/04/14 07:19:09;;;;;;;;;10.25;10.25;;;;;9.43;65.53;100341.59;5100743;27;45512;-64
2023/04/14 07:21:36;;;;;;;;;11.50;11.50;;;;;9.43;65.44;100330.94;5109717;27;45575;-65
2023/04/14 07:24:02;;;;;;;;;14.25;10.75;;;;;9.49;65.68;100327.22;5110909;27;45646;-65
2023/04/14 07:26:27;;;;;;;;;14.00;12.25;;;;;9.52;65.53;100319.13;5113493;27;46763;-67
2023/04/14 07:28:54;;;;;;;;;9.75;9.75;;;;;9.57;65.49;100314.50;5101314;27;45831;-65
2023/04/14 07:31:19;;;;;;;;;11.75;10.75;;;;;9.67;64.97;100319.50;5114499;27;45495;-66
2023/04/14 07:33:45;;;;;;;;;14.50;10.50;;;;;9.70;65.13;100316.72;5111321;27;45617;-66
2023/04/14 07:36:11;;;;;;;;;13.50;10.50;;;;;9.71;65.00;100321.13;5111058;27;45325;-66
2023/04/14 07:38:36;;;;;;;;;11.50;9.75;;;;;9.70;65.41;100314.06;5117536;27;45240;-66
2023/04/14 07:41:03;;;;;;;;;9.50;9.00;;;;;9.71;65.00;100313.16;5103774;27;45515;-65
2023/04/14 07:43:33;;;;;;;;;11.50;11.50;;;;;9.70;64.82;100298.94;5105107;27;45456;-65
2023/04/14 07:46:00;;;;;;;;;10.00;10.00;;;;;9.75;65.38;100302.28;5101938;27;46925;-65
2023/04/14 07:48:25;;;;;;;;;8.75;8.75;;;;;9.77;64.67;100291.56;5097858;27;45427;-65
2023/04/14 07:50:50;;;;;;;;;13.50;9.50;;;;;9.77;64.98;100279.16;5110023;27;46611;-65
2023/04/14 07:53:16;;;;;;;;;10.50;9.75;;;;;9.78;65.01;100285.34;5111158;27;45532;-65
2023/04/14 07:55:41;;;;;;;;;7.25;7.00;;;;;9.77;64.92;100278.25;5117601;27;45344;-68
2023/04/14 07:58:06;;;;;;;;;8.75;7.25;;;;;9.80;64.80;100284.34;5097560;27;45351;-66
2023/04/14 08:00:32;;;;;;;;;8.00;8.00;;;;;9.81;65.41;100279.91;5118202;27;45537;-66
2023/04/14 08:02:57;;;;;;;;;10.50;9.00;;;;;9.82;65.47;100268.28;5105207;27;45306;-66
2023/04/14 08:05:23;;;;;;;;;9.75;8.50;;;;;9.89;65.23;100268.94;5112396;27;45916;-64
2023/04/14 08:07:48;;;;;;;;;4.75;4.75;;;;;9.94;65.25;100277.63;5091386;27;45272;-64
2023/04/14 08:10:14;;;;;;;;;8.75;7.75;;;;;9.91;65.07;100275.97;5110647;27;53573;-64
2023/04/14 08:12:39;;;;;;;;;4.75;4.75;;;;;9.86;65.50;100263.75;5105575;27;45645;-63
2023/04/14 08:15:05;;;;;;;;;8.75;8.00;;;;;9.93;65.75;100265.25;5105837;27;45497;-63
2023/04/14 08:17:31;;;;;;;;;7.50;6.00;;;;;9.99;65.44;100273.88;5110500;27;45528;-63
2023/04/14 08:19:57;;;;;;;;;7.50;7.00;;;;;10.04;65.54;100272.81;5119449;27;45618;-63
2023/04/14 08:22:24;;;;;;;;;5.00;5.00;;;;;10.06;65.57;100279.00;5111072;27;45527;-63
2023/04/14 08:24:49;;;;;;;;;6.00;6.00;;;;;10.03;65.08;100282.63;5108322;27;45453;-63
2023/04/14 08:27:15;;;;;;;;;7.75;7.75;;;;;10.00;65.25;100278.25;5112558;27;45553;-63
2023/04/14 08:29:40;;;;;;;;;8.00;5.00;;;;;10.07;65.53;100273.56;5112365;27;46410;-63
2023/04/14 08:32:05;;;;;;;;;5.50;5.00;;;;;10.06;65.48;100271.00;5104547;27;45500;-63
2023/04/14 08:34:31;;;;;;;;;4.50;4.25;;;;;10.04;65.47;100267.50;5114897;27;45937;-63
2023/04/14 08:36:59;;;;;;;;;7.00;6.50;;;;;10.05;65.27;100274.56;5101051;27;51186;-63
2023/04/14 08:39:24;;;;;;;;;6.00;5.00;;;;;10.07;65.67;100262.91;5109324;27;45632;-62
2023/04/14 08:41:52;;;;;;;;;4.75;4.75;;;;;10.10;65.54;100257.47;5111819;27;45338;-63
2023/04/14 08:44:17;;;;;;;;;6.50;5.50;;;;;10.16;65.73;100259.91;5096062;27;46086;-64
2023/04/14 08:46:44;;;;;;;;;3.50;3.50;;;;;10.14;65.26;100256.44;5117787;27;45613;-63
2023/04/14 08:49:16;;;;;;;;;5.00;5.00;;;;;10.18;65.37;100260.72;5114273;27;45566;-63
2023/04/14 08:51:44;;;;;;;;;5.50;5.50;;;;;10.20;65.13;100247.31;5091802;27;45709;-63
2023/04/14 08:54:10;;;;;;;;;4.00;4.00;;;;;10.26;65.87;100249.75;5111495;27;45603;-63
2023/04/14 08:56:41;;;;;;;;;4.50;4.00;;;;;10.29;65.78;100248.75;5117811;27;45536;-63
2023/04/14 08:59:10;;;;;;;;;7.75;7.00;;;;;10.32;65.81;100244.22;5119366;27;45510;-63
2023/04/14 09:01:37;;;;;;;;;6.25;5.00;;;;;10.37;65.53;100241.34;5108550;27;45418;-63
2023/04/14 09:04:03;;;;;;;;;4.50;4.50;;;;;10.42;65.78;100241.16;5111799;27;45612;-62
2023/04/14 09:06:29;;;;;;;;;4.00;4.00;;;;;10.46;65.79;100249.00;5108348;27;45775;-63
2023/04/14 09:08:54;;;;;;;;;8.00;6.50;;;;;10.49;65.01;100240.88;5113391;27;45448;-62
2023/04/14 09:11:20;;;;;;;;;5.25;4.00;;;;;10.53;64.98;100233.63;5108424;27;49984;-63
2023/04/14 09:13:48;;;;;;;;;2.50;2.50;;;;;10.53;65.08;100231.81;5109805;27;46198;-63
2023/04/14 09:16:16;;;;;;;;;6.25;5.00;;;;;10.56;64.69;100233.50;5108915;27;46517;-63
2023/04/14 09:18:42;;;;;;;;;3.25;3.25;;;;;10.55;64.94;100223.75;5113333;27;46706;-65
2023/04/14 09:21:10;;;;;;;;;5.00;4.00;;;;;10.60;65.14;100220.88;5108267;27;45990;-65
2023/04/14 09:23:36;;;;;;;;;4.00;4.00;;;;;10.61;64.95;100214.59;5107734;27;46228;-65
2023/04/14 09:26:02;;;;;;;;;5.00;5.00;;;;;10.69;65.03;100210.72;5106259;27;45323;-65
2023/04/14 09:28:27;;;;;;;;;3.00;3.00;;;;;10.69;64.57;100202.69;5112636;27;45412;-65
2023/04/14 09:30:54;;;;;;;;;7.00;4.00;;;;;10.71;64.60;100206.16;5107674;27;59175;-65
2023/04/14 09:33:21;;;;;;;;;5.00;3.75;;;;;10.71;64.74;100199.97;5106077;27;46171;-65
2023/04/14 09:35:48;;;;;;;;;3.00;3.00;;;;;10.72;64.51;100199.88;5115660;27;45341;-65
2023/04/14 09:38:29;;;;;;;;;2.25;2.00;;;;;10.74;64.31;100187.34;5111403;27;45534;-66
2023/04/14 09:40:55;;;;;;;;;4.00;3.00;;;;;10.79;64.83;100188.94;5116386;27;45453;-66
2023/04/14 09:43:25;;;;;;;;;3.00;3.00;;;;;10.82;64.84;100195.03;5102923;27;46270;-66
2023/04/14 09:45:52;;;;;;;;;3.00;2.00;;;;;10.84;64.86;100185.16;5105046;27;45675;-66
2023/04/14 09:48:18;;;;;;;;;3.25;3.00;;;;;10.82;64.28;100176.34;5111867;27;45667;-66
2023/04/14 09:51:02;;;;;;;;;1.50;1.50;;;;;10.89;64.40;100174.28;5117472;27;45402;-66
2023/04/14 09:53:35;;;;;;;;;2.00;2.00;;;;;10.84;64.26;100163.81;5108397;27;47178;-66
2023/04/14 09:56:06;;;;;;;;;2.25;1.00;;;;;10.91;64.57;100175.09;5100256;27;45979;-66
2023/04/14 09:58:32;;;;;;;;;4.25;4.25;;;;;10.94;64.91;100178.50;5117351;27;45301;-66
2023/04/14 10:00:58;;;;;;;;;1.25;1.25;;;;;10.93;64.61;100160.72;5100091;27;45326;-66
2023/04/14 10:03:34;;;;;;;;;1.75;0.25;;;;;10.97;64.27;100171.28;5106758;27;47159;-66
2023/04/14 10:06:03;;;;;;;;;3.75;2.25;;;;;10.95;64.63;100152.66;5100922;27;45523;-66
2023/04/14 10:08:40;;;;;;;;;3.00;2.25;;;;;10.98;64.63;100151.66;5114287;27;45420;-66
2023/04/14 10:11:20;;;;;;;;;1.75;0.75;;;;;11.04;64.95;100154.06;5104130;27;45621;-66
2023/04/14 10:13:54;;;;;;;;;1.25;0.75;;;;;11.07;64.09;100157.44;5104031;27;46043;-66
2023/04/14 10:16:20;;;;;;;;;2.00;2.00;;;;;11.10;64.78;100154.66;5111282;27;45730;-66
2023/04/14 10:18:45;;;;;;;;;3.50;1.75;;;;;11.14;64.37;100155.38;5089328;27;45566;-67
2023/04/14 10:21:13;;;;;;;;;0.50;0.50;;;;;11.17;64.14;100149.03;5114564;27;45624;-65
2023/04/14 10:23:40;;;;;;;;;3.25;0.75;;;;;11.22;64.33;100158.59;5110986;27;45598;-63
2023/04/14 10:26:07;;;;;;;;;1.25;1.25;;;;;11.21;64.14;100145.28;5111242;27;47089;-62
2023/04/14 10:28:47;;;;;;;;;2.00;2.00;;;;;11.27;64.24;100148.56;5114541;27;45456;-62
2023/04/14 10:31:22;;;;;;;;;2.00;1.00;;;;;11.30;63.82;100134.22;5098471;27;45552;-63
2023/04/14 10:33:48;;;;;;;;;4.00;1.75;;;;;11.32;63.72;100138.53;5116630;27;45713;-63
2023/04/14 10:36:23;;;;;;;;;4.00;2.00;;;;;11.36;64.34;100131.25;5102869;27;45635;-63
2023/04/14 10:38:49;;;;;;;;;2.75;1.00;;;;;11.40;63.60;100135.53;5117132;27;45666;-63
2023/04/14 10:41:14;;;;;;;;;5.25;3.00;;;;;11.40;63.74;100121.31;5107805;27;45345;-63
2023/04/14 10:43:40;;;;;;;;;1.75;1.00;;;;;11.42;63.38;100122.94;5097843;27;61747;-63
2023/04/14 10:46:06;;;;;;;;;5.50;2.25;;;;;11.41;63.35;100118.56;5109459;27;45485;-62
2023/04/14 10:48:32;;;;;;;;;2.75;2.00;;;;;11.45;63.28;100112.13;5097638;27;45601;-63
2023/04/14 10:50:58;;;;;;;;;3.00;1.00;;;;;11.42;63.14;100101.56;5098562;27;45598;-63
2023/04/14 10:53:25;;;;;;;;;4.00;1.00;;;;;11.49;63.23;100107.50;5114835;27;47048;-63
2023/04/14 10:55:54;;;;;;;;;0.50;0.50;;;;;11.52;63.37;100109.19;5107540;27;45832;-63
2023/04/14 10:58:21;;;;;;;;;4.75;3.00;;;;;11.57;63.26;100109.81;5114942;27;45540;-62
2023/04/14 11:00:46;;;;;;;;;2.00;2.00;;;;;11.60;63.46;100104.34;5099303;27;45561;-63
2023/04/14 11:03:19;;;;;;;;;2.00;2.00;;;;;11.60;63.33;100089.16;5112145;27;55583;-63
2023/04/14 11:05:48;;;;;;;;;1.00;1.00;;;;;11.63;63.42;100096.19;5116623;27;45602;-63
2023/04/14 11:08:35;;;;;;;;;1.75;1.75;;;;;11.71;63.18;100099.38;5117078;27;45385;-63
2023/04/14 11:11:05;;;;;;;;;2.00;2.00;;;;;11.74;63.38;100096.53;5101733;27;45747;-62
2023/04/14 11:13:33;;;;;;;;;4.00;1.50;;;;;11.75;63.28;100095.59;5110457;27;45575;-62
2023/04/14 11:16:05;;;;;;;;;1.50;1.00;;;;;11.77;63.24;100087.50;5106218;27;45321;-62
2023/04/14 11:18:41;;;;;;;;;1.00;1.00;;;;;11.77;64.29;100079.47;5101879;27;45421;-62
2023/04/14 11:21:15;;;;;;;;;2.75;2.00;;;;;11.77;63.73;100077.66;5112416;27;45429;-63
2023/04/14 11:23:42;;;;;;;;;4.25;2.00;;;;;11.78;64.14;100071.38;5104684;27;45380;-63
2023/04/14 11:26:09;;;;;;;;;1.00;1.00;;;;;11.78;64.25;100063.38;5105358;27;45511;-64
2023/04/14 11:28:42;;;;;;;;;0.75;0.75;;;;;11.80;64.48;100064.16;5115388;27;45384;-63